METAR Data
IDs: Format: Raw Decoded Include TAF

Data at: 2154 UTC 10 May 2021

KMNH 102135Z AUTO 15012KT 10SM -DZ SCT007 BKN019 OVC055 01/00 A3005 RMK AO2
KMNH 102115Z AUTO 14013KT 10SM -RA SCT007 BKN055 OVC070 02/01 A3006 RMK AO2
KMNH 102055Z AUTO 14012KT 10SM SCT010 BKN015 OVC055 02/01 A3006 RMK AO2 P0002
KMNH 102035Z AUTO 13013G17KT 10SM -RA BKN006 OVC013 02/01 A3005 RMK AO2 P0002
KMNH 102015Z AUTO 13011KT 1 1/4SM -SN OVC006 00/00 A3006 RMK AO2 P0001
KMNH 101955Z AUTO 15008KT 3SM -RA BKN008 BKN013 OVC018 00/00 A3008 RMK AO2 P0001
KMNH 101935Z AUTO 15010KT 5SM -RA OVC008 01/00 A3006 RMK AO2
KMNH 101915Z AUTO 14013KT 5SM BR OVC008 02/01 A3006 RMK AO2
KMNH 101855Z AUTO 13013G16KT 7SM BKN008 OVC014 02/01 A3004 RMK AO2
KMNH 101835Z AUTO 15012KT 7SM OVC008 02/00 A3005 RMK AO2
KMNH 101815Z AUTO 16016KT 5SM BR OVC008 02/00 A3006 RMK AO2
KMNH 101755Z AUTO 15013G16KT 4SM BR OVC008 01/00 A3006 RMK AO2 LTG DSNT NW
KMNH 101735Z AUTO 14011G18KT 5SM BR OVC008 01/00 A3007 RMK AO2
KMNH 101715Z AUTO 16015KT 10SM OVC008 01/00 A3007 RMK AO2
KMNH 101655Z AUTO 16016G19KT 7SM OVC008 01/00 A3007 RMK AO2
KMNH 101635Z AUTO 16017G23KT 7SM OVC008 01/00 A3007 RMK AO2
KMNH 101615Z AUTO 15019G24KT 7SM OVC008 01/00 A3007 RMK AO2
KMNH 101555Z AUTO 15019G27KT 10SM BKN008 OVC014 01/00 A3006 RMK AO2
KMNH 101535Z AUTO 16021G27KT 10SM BKN008 OVC014 02/00 A3006 RMK AO2
KMNH 101515Z AUTO 15018G24KT 7SM BKN008 OVC013 01/00 A3007 RMK AO2
KMNH 101455Z AUTO 15017G23KT 5SM BR BKN008 OVC013 01/00 A3008 RMK AO2
KMNH 101435Z AUTO 16015G21KT 5SM BR BKN005 OVC010 01/00 A3008 RMK AO2
KMNH 101415Z AUTO 17017G21KT 5SM BR OVC005 00/00 A3009 RMK AO2
KMNH 101355Z AUTO 16014G20KT 5SM BR OVC003 00/00 A3009 RMK AO2
KMNH 101335Z AUTO 18015G18KT 1SM BR OVC003 00/00 A3009 RMK AO2
KMNH 101315Z AUTO 16012KT 3SM BR OVC003 00/00 A3008 RMK AO2
KMNH 101255Z AUTO 17013KT 4SM BR OVC005 00/00 A3009 RMK AO2
KMNH 101235Z AUTO 17010G15KT 10SM OVC005 00/00 A3008 RMK AO2
KMNH 101215Z AUTO 18013G16KT 10SM OVC007 00/00 A3007 RMK AO2
KMNH 101155Z AUTO 16011KT 10SM OVC009 00/00 A3007 RMK AO2
KMNH 101135Z AUTO 17016G21KT 10SM OVC009 00/00 A3007 RMK AO2
KMNH 101115Z AUTO 17015G21KT 10SM OVC009 00/M01 A3008 RMK AO2
KMNH 101055Z AUTO 17013G19KT 10SM BKN009 BKN012 BKN120 00/M01 A3008 RMK AO2
KMNH 101035Z AUTO 17016G20KT 10SM BKN110 00/00 A3008 RMK AO2
KMNH 101015Z AUTO 18014G24KT 10SM BKN120 00/M01 A3008 RMK AO2
KMNH 100955Z AUTO 18015G24KT 10SM SCT085 BKN110 00/M01 A3009 RMK AO2
KMNH 100935Z AUTO 18017KT 10SM SCT065 BKN075 OVC085 00/00 A3008 RMK AO2
KMNH 100915Z AUTO 17016KT 10SM BKN075 OVC090 00/00 A3008 RMK AO2
KMNH 100855Z AUTO 18014G17KT 10SM SCT065 BKN080 OVC090 00/00 A3009 RMK AO2
KMNH 100835Z AUTO 18013KT 10SM SCT009 BKN049 OVC070 00/00 A3010 RMK AO2
KMNH 100815Z AUTO 18013KT 7SM -SN SCT007 BKN033 OVC045 00/00 A3011 RMK AO2
KMNH 100755Z AUTO 18013KT 10SM -SN SCT009 BKN033 OVC049 00/00 A3012 RMK AO2
KMNH 100735Z AUTO 19011G16KT 10SM -SN SCT009 BKN040 OVC050 00/00 A3011 RMK AO2
KMNH 100715Z AUTO 18012G18KT 10SM -RA SCT009 BKN041 OVC060 00/00 A3012 RMK AO2 LTG DSNT S
KMNH 100655Z AUTO 17013KT 10SM SCT009 BKN036 OVC060 01/00 A3011 RMK AO2 LTG DSNT S
KMNH 100635Z AUTO 18010KT 10SM BKN011 BKN018 OVC043 01/00 A3012 RMK AO2
KMNH 100615Z AUTO 17011KT 10SM BKN013 OVC042 01/00 A3012 RMK AO2 LTG DSNT SE
KMNH 100555Z AUTO 17012KT 10SM SCT017 SCT037 OVC044 01/00 A3012 RMK AO2
KMNH 100535Z AUTO 17010KT 10SM SCT017 SCT035 OVC044 01/M01 A3012 RMK AO2 LTG DSNT S
KMNH 100515Z AUTO 16010KT 10SM BKN043 OVC050 01/M01 A3012 RMK AO2 LTG DSNT SE
KMNH 100455Z AUTO 17007KT 10SM BKN043 BKN050 00/M01 A3013 RMK AO2
KMNH 100435Z AUTO 16004KT 10SM SCT041 SCT050 00/M02 A3013 RMK AO2
KMNH 100415Z AUTO 17003KT 10SM BKN041 00/M02 A3013 RMK AO2
KMNH 100355Z AUTO 15005KT 10SM SCT041 00/M02 A3012 RMK AO2
KMNH 100335Z AUTO 15006KT 10SM SCT019 00/M02 A3012 RMK AO2
KMNH 100315Z AUTO 16005KT 10SM SCT021 BKN045 SCT085 01/M02 A3012 RMK AO2
KMNH 100255Z AUTO 17010KT 10SM SCT021 SCT075 BKN090 01/M02 A3012 RMK AO2
KMNH 100235Z AUTO 15008KT 10SM SCT042 SCT075 OVC090 02/M02 A3011 RMK AO2
KMNH 100215Z AUTO 15007KT 10SM OVC044 02/M02 A3011 RMK AO2
KMNH 100155Z AUTO 14008KT 10SM OVC046 02/M01 A3010 RMK AO2
KMNH 100135Z AUTO 15012KT 10SM SCT030 BKN040 OVC046 02/M02 A3009 RMK AO2
KMNH 100115Z AUTO 16009KT 10SM BKN028 OVC037 02/M01 A3009 RMK AO2
KMNH 100055Z AUTO 15013G20KT 10SM BKN026 OVC030 02/M02 A3009 RMK AO2
KMNH 100035Z AUTO 15013G17KT 10SM OVC024 03/M01 A3009 RMK AO2
KMNH 100015Z AUTO 15011G18KT 10SM OVC024 03/M01 A3009 RMK AO2
KMNH 092355Z AUTO 15012KT 10SM OVC026 03/M02 A3009 RMK AO2
KMNH 092335Z AUTO 15013G17KT 10SM OVC028 03/M02 A3009 RMK AO2
KMNH 092315Z AUTO 16013KT 10SM OVC028 03/M01 A3008 RMK AO2
KMNH 092255Z AUTO 16011KT 10SM OVC028 04/M01 A3008 RMK AO2
KMNH 092235Z AUTO 16010G15KT 10SM OVC028 04/M01 A3008 RMK AO2
KMNH 092215Z AUTO 15009G12KT 10SM OVC028 04/M01 A3008 RMK AO2
KMNH 092155Z AUTO 15012KT 10SM OVC028 04/M01 A3008 RMK AO2
KMNH 092135Z AUTO 14013G20KT 10SM OVC028 05/M01 A3007 RMK AO2
KMNH 092115Z AUTO 15014G19KT 10SM OVC030 05/M01 A3006 RMK AO2
KMNH 092055Z AUTO 14008KT 10SM OVC030 04/M01 A3008 RMK AO2
KMNH 092035Z AUTO 18010G15KT 10SM OVC030 04/M01 A3009 RMK AO2
KMNH 092015Z AUTO 15012KT 10SM OVC030 05/M01 A3008 RMK AO2
KMNH 091955Z AUTO 14010KT 10SM OVC028 04/M01 A3009 RMK AO2
KMNH 091935Z AUTO 13011KT 10SM OVC028 04/M01 A3009 RMK AO2
KMNH 091915Z AUTO 14011G16KT 10SM OVC028 04/M01 A3009 RMK AO2
KMNH 091855Z AUTO 15012G15KT 10SM OVC030 04/M01 A3010 RMK AO2
KMNH 091835Z AUTO 12005KT 10SM OVC032 05/M02 A3010 RMK AO2
KMNH 091815Z AUTO 17004KT 10SM OVC030 05/M02 A3011 RMK AO2
KMNH 091755Z AUTO 10007KT 10SM OVC030 04/M02 A3011 RMK AO2
KMNH 091735Z AUTO 11007KT 10SM OVC032 04/M03 A3012 RMK AO2
KMNH 091715Z AUTO 05004KT 10SM SCT025 OVC036 04/M02 A3013 RMK AO2
KMNH 091655Z AUTO 08006KT 10SM SCT025 OVC036 03/M02 A3013 RMK AO2
KMNH 091635Z AUTO 09004KT 10SM SCT025 OVC036 02/M02 A3013 RMK AO2
KMNH 091615Z AUTO 09004KT 10SM OVC036 02/M03 A3013 RMK AO2
KMNH 091555Z AUTO 00000KT 10SM OVC038 02/M02 A3012 RMK AO2
KMNH 091535Z AUTO 02005KT 10SM SCT028 OVC040 02/M02 A3012 RMK AO2
KMNH 091515Z AUTO 04005KT 10SM BKN028 OVC042 01/M03 A3013 RMK AO2
KMNH 091455Z AUTO 03004KT 10SM SCT026 OVC040 01/M03 A3014 RMK AO2
KMNH 091435Z AUTO 36005KT 10SM OVC038 01/M02 A3013 RMK AO2
KMNH 091415Z AUTO 01005KT 10SM OVC034 00/M02 A3013 RMK AO2
KMNH 091355Z AUTO 35004KT 10SM OVC032 00/M01 A3014 RMK AO2
KMNH 091335Z AUTO 36003KT 10SM OVC032 00/00 A3013 RMK AO2
KMNH 091315Z AUTO 01004KT 10SM SCT004 OVC030 00/00 A3012 RMK AO2
KMNH 091255Z AUTO 01005KT 10SM SCT004 SCT008 OVC027 00/00 A3012 RMK AO2
KMNH 091235Z AUTO 02005KT 10SM SCT004 BKN017 OVC024 00/00 A3011 RMK AO2
KMNH 091215Z AUTO 01010KT 4SM -DZ BKN003 OVC010 00/00 A3011 RMK AO2
KMNH 091155Z AUTO 03009KT 4SM BR OVC003 00/00 A3009 RMK AO2
KMNH 091135Z AUTO 02009G14KT 4SM BR OVC003 00/00 A3009 RMK AO2
KMNH 091115Z AUTO 03010KT 5SM BR OVC003 00/00 A3008 RMK AO2
KMNH 091055Z AUTO 03010KT 2SM -DZ OVC003 00/00 A3008 RMK AO2
KMNH 091035Z AUTO 02012KT 4SM -DZ OVC003 00/00 A3008 RMK AO2
KMNH 091015Z AUTO 03010KT 3SM -DZ OVC003 00/00 A3009 RMK AO2
KMNH 090955Z AUTO 03009KT 4SM -RA OVC003 01/01 A3009 RMK AO2 P0004